createdAt,value
2019-04-14T00:01:21.840Z,57.05
2019-04-14T00:06:41.903Z,40.43
2019-04-14T00:09:12.411Z,45.67
2019-04-14T00:11:41.473Z,49.33
2019-04-14T00:14:07.631Z,44.55
2019-04-14T00:16:33.905Z,57.03
2019-04-14T00:18:59.983Z,45.83
2019-04-14T00:21:26.161Z,45.80
2019-04-14T00:23:52.309Z,45.83
2019-04-14T00:26:24.975Z,45.98
2019-04-14T00:28:51.290Z,42.88
2019-04-14T00:31:17.523Z,47.03
2019-04-14T00:33:45.289Z,42.90
2019-04-14T00:36:22.267Z,40.75
2019-04-14T00:38:50.332Z,41.50
2019-04-14T00:41:18.322Z,45.80
2019-04-14T00:43:48.896Z,42.43
2019-04-14T00:46:34.184Z,43.25
2019-04-14T00:49:02.722Z,44.83
2019-04-14T00:51:29.054Z,39.92
2019-04-14T00:53:55.753Z,37.98
2019-04-14T00:56:21.949Z,43.73
2019-04-14T00:58:47.997Z,42.88
2019-04-14T01:01:14.055Z,39.20
2019-04-14T01:03:40.208Z,39.48
2019-04-14T01:06:07.546Z,38.60
2019-04-14T01:08:33.881Z,40.20
2019-04-14T01:11:00.992Z,36.53
2019-04-14T01:13:27.400Z,40.70
2019-04-14T01:16:00.566Z,35.88
2019-04-14T01:18:21.620Z,33.45
2019-04-14T01:20:47.784Z,34.65
2019-04-14T01:23:15.035Z,30.72
2019-04-14T01:25:41.295Z,271.77
2019-04-14T01:28:07.442Z,46.85
2019-04-14T01:30:33.601Z,40.43
2019-04-14T01:33:01.010Z,32.38
2019-04-14T01:35:27.313Z,35.80
2019-04-14T01:37:53.472Z,52.08
2019-04-14T01:40:20.699Z,124.67
2019-04-14T01:42:46.974Z,40.15
2019-04-14T01:45:16.350Z,41.88
2019-04-14T01:47:42.594Z,43.52
2019-04-14T01:50:08.739Z,36.93
2019-04-14T01:52:36.701Z,40.15
2019-04-14T01:55:07.008Z,40.95
2019-04-14T01:57:35.128Z,37.73
2019-04-14T02:00:20.772Z,34.15
2019-04-14T02:02:47.296Z,39.92
2019-04-14T02:05:14.566Z,43.38
2019-04-14T02:07:40.829Z,42.78
2019-04-14T02:10:07.036Z,44.27
2019-04-14T02:12:34.435Z,39.45
2019-04-14T02:15:00.642Z,37.28
2019-04-14T02:17:26.802Z,38.70
2019-04-14T02:19:52.967Z,37.10
2019-04-14T02:22:20.199Z,34.45
2019-04-14T02:24:46.490Z,33.95
2019-04-14T02:27:12.647Z,36.03
2019-04-14T02:29:38.693Z,32.40
2019-04-14T02:32:35.435Z,35.17
2019-04-14T02:35:00.192Z,36.25
2019-04-14T02:37:44.721Z,33.60
2019-04-14T02:40:08.188Z,29.70
2019-04-14T02:44:52.814Z,33.67
2019-04-14T02:49:50.759Z,33.20
2019-04-14T02:54:50.420Z,35.03
2019-04-14T02:57:19.066Z,32.65
2019-04-14T03:02:22.927Z,31.00
2019-04-14T03:04:37.468Z,34.13
2019-04-14T03:07:05.216Z,35.13
2019-04-14T03:09:36.358Z,30.68
2019-04-14T03:12:03.022Z,33.70
2019-04-14T03:14:30.974Z,33.65
2019-04-14T03:17:21.912Z,32.00
2019-04-14T03:20:07.162Z,37.90
2019-04-14T03:28:14.394Z,28.92
2019-04-14T03:33:18.019Z,32.55
2019-04-14T03:35:58.113Z,32.08
2019-04-14T03:37:56.544Z,30.30
2019-04-14T03:40:28.523Z,30.97
2019-04-14T03:42:59.096Z,31.37
2019-04-14T03:45:26.137Z,32.78
2019-04-14T03:47:44.452Z,33.85
2019-04-14T03:50:16.064Z,33.23
2019-04-14T03:55:01.471Z,31.97
2019-04-14T03:57:12.595Z,26.65
2019-04-14T03:59:39.233Z,32.50
2019-04-14T04:02:05.597Z,33.13
2019-04-14T04:04:31.759Z,30.50
2019-04-14T04:06:57.895Z,32.48
2019-04-14T04:09:25.849Z,33.80
2019-04-14T04:11:52.068Z,29.35
2019-04-14T04:14:18.283Z,33.35
2019-04-14T04:16:59.465Z,33.80
2019-04-14T04:19:30.143Z,37.20
2019-04-14T04:22:04.237Z,52.83
2019-04-14T04:24:35.171Z,55.50
2019-04-14T04:27:15.805Z,56.90
2019-04-14T04:29:46.461Z,63.33
2019-04-14T04:32:32.612Z,65.62
2019-04-14T04:35:04.304Z,57.58
2019-04-14T04:37:45.459Z,62.90
2019-04-14T04:40:13.628Z,54.03
2019-04-14T04:42:39.685Z,58.95
2019-04-14T04:45:06.127Z,54.90
2019-04-14T04:47:32.119Z,52.00
2019-04-14T04:49:58.259Z,53.48
2019-04-14T04:52:24.315Z,61.65
2019-04-14T04:54:51.559Z,55.55
2019-04-14T04:57:17.917Z,55.92
2019-04-14T04:59:45.236Z,46.73
2019-04-14T05:02:11.495Z,42.05
2019-04-14T05:04:37.557Z,53.58
2019-04-14T05:07:03.781Z,48.73
2019-04-14T05:18:00.487Z,47.90
2019-04-14T05:20:27.105Z,50.55
2019-04-14T05:22:53.313Z,47.98
2019-04-14T05:25:19.503Z,51.33
2019-04-14T05:27:45.650Z,38.28
2019-04-14T05:30:11.858Z,36.95
2019-04-14T05:32:39.223Z,32.25
2019-04-14T05:35:05.808Z,33.50
2019-04-14T05:37:31.894Z,37.75
2019-04-14T05:39:59.292Z,46.63
2019-04-14T05:42:27.156Z,42.48
2019-04-14T05:44:53.811Z,41.08
2019-04-14T05:47:20.087Z,39.50
2019-04-14T05:49:50.081Z,37.17
2019-04-14T05:52:14.306Z,36.13
2019-04-14T05:54:40.539Z,36.98
2019-04-14T05:57:06.688Z,34.10
2019-04-14T05:59:33.356Z,36.77
2019-04-14T06:01:59.484Z,41.75
2019-04-14T06:04:26.455Z,38.60
2019-04-14T06:06:52.726Z,44.40
2019-04-14T06:09:18.883Z,42.43
2019-04-14T06:11:45.044Z,39.88
2019-04-14T06:14:11.092Z,48.95
2019-04-14T06:16:37.244Z,34.03
2019-04-14T06:19:03.407Z,36.42
2019-04-14T06:21:29.565Z,35.58
2019-04-14T06:23:55.775Z,37.45
2019-04-14T06:26:21.908Z,36.05
2019-04-14T06:28:48.080Z,31.87
2019-04-14T06:31:32.611Z,35.88
2019-04-14T06:34:00.748Z,36.58
2019-04-14T06:36:34.544Z,37.95
2019-04-14T06:39:17.721Z,36.30
2019-04-14T06:41:43.833Z,54.27
2019-04-14T06:44:09.999Z,48.48
2019-04-14T06:46:36.145Z,40.52
2019-04-14T06:49:02.521Z,34.55
2019-04-14T06:51:28.673Z,38.58
2019-04-14T06:53:54.827Z,35.75
2019-04-14T06:56:20.987Z,40.45
2019-04-14T06:58:47.182Z,41.25
2019-04-14T07:01:13.328Z,37.40
2019-04-14T07:03:39.542Z,33.18
2019-04-14T07:06:05.753Z,35.98
2019-04-14T07:08:31.889Z,35.92
2019-04-14T07:10:58.039Z,37.60
2019-04-14T07:13:24.187Z,31.23
2019-04-14T07:15:50.335Z,39.50
2019-04-14T07:18:16.379Z,40.50
2019-04-14T07:20:42.425Z,39.85
2019-04-14T07:23:08.566Z,31.07
2019-04-14T07:25:34.711Z,25.00
2019-04-14T07:28:00.875Z,27.45
2019-04-14T07:30:45.379Z,24.47
2019-04-14T07:33:29.838Z,23.87
2019-04-14T07:36:00.432Z,21.50
2019-04-14T07:38:28.482Z,18.85
2019-04-14T07:41:02.155Z,21.12
2019-04-14T07:43:32.764Z,22.20
2019-04-14T07:46:03.488Z,22.75
2019-04-14T07:51:21.322Z,17.65
2019-04-14T07:53:49.216Z,18.70
2019-04-14T07:56:34.064Z,16.95
2019-04-14T07:59:05.247Z,16.87
2019-04-14T08:01:39.208Z,23.92
2019-04-14T08:04:07.253Z,15.95
2019-04-14T08:06:33.576Z,17.30
2019-04-14T08:08:59.746Z,20.15
2019-04-14T08:11:25.877Z,14.45
2019-04-14T08:13:52.063Z,16.37
2019-04-14T08:16:18.197Z,16.77
2019-04-14T08:18:44.499Z,14.45
2019-04-14T08:21:10.654Z,19.00
2019-04-14T08:23:36.794Z,20.97
2019-04-14T08:26:02.959Z,16.52
2019-04-14T08:28:29.165Z,17.75
2019-04-14T08:30:55.299Z,16.75
2019-04-14T08:33:21.437Z,17.07
2019-04-14T08:35:47.569Z,23.38
2019-04-14T08:38:13.740Z,45.67
2019-04-14T08:40:39.885Z,28.65
2019-04-14T08:43:10.469Z,54.33
2019-04-14T08:48:19.061Z,18.55
2019-04-14T08:50:47.031Z,18.23
2019-04-14T08:53:17.755Z,16.40
2019-04-14T08:56:03.854Z,23.30
2019-04-14T08:58:48.481Z,20.37
2019-04-14T09:09:37.535Z,21.02
2019-04-14T09:12:15.285Z,19.85
2019-04-14T09:14:33.954Z,18.17
2019-04-14T09:17:00.233Z,20.60
2019-04-14T09:19:26.262Z,17.32
2019-04-14T09:21:52.459Z,17.35
2019-04-14T09:24:18.502Z,24.92
2019-04-14T09:26:44.690Z,21.87
2019-04-14T09:29:10.730Z,30.35
2019-04-14T09:31:36.860Z,47.93
2019-04-14T09:34:02.997Z,37.55
2019-04-14T09:36:29.140Z,23.95
2019-04-14T09:38:55.219Z,20.52
2019-04-14T09:41:21.256Z,23.55
2019-04-14T09:43:47.455Z,25.08
2019-04-14T09:46:13.639Z,23.02
2019-04-14T09:48:39.786Z,21.60
2019-04-14T09:51:05.978Z,24.92
2019-04-14T09:53:32.031Z,20.75
2019-04-14T09:55:58.167Z,21.45
2019-04-14T09:58:24.226Z,21.07
2019-04-14T10:00:50.395Z,19.73
2019-04-14T10:03:16.655Z,20.32
2019-04-14T10:05:42.735Z,23.73
2019-04-14T10:08:08.873Z,21.80
2019-04-14T10:10:35.059Z,23.98
2019-04-14T10:13:01.313Z,21.80
2019-04-14T10:15:27.627Z,23.62
2019-04-14T10:17:53.935Z,20.70
2019-04-14T10:20:20.211Z,21.12
2019-04-14T10:22:46.480Z,22.00
2019-04-14T10:25:12.632Z,21.20
2019-04-14T10:27:38.928Z,20.88
2019-04-14T10:30:05.699Z,27.17
2019-04-14T10:32:31.963Z,20.37
2019-04-14T10:34:58.140Z,23.92
2019-04-14T10:37:24.389Z,26.60
2019-04-14T10:39:50.675Z,22.40
2019-04-14T10:42:17.990Z,25.27
2019-04-14T10:44:44.247Z,26.07
2019-04-14T10:47:10.519Z,22.93
2019-04-14T10:49:36.714Z,20.08
2019-04-14T10:52:03.174Z,20.70
2019-04-14T10:54:29.512Z,24.20
2019-04-14T10:56:55.661Z,19.12
2019-04-14T10:59:21.928Z,22.27
2019-04-14T11:01:48.177Z,20.08
2019-04-14T11:04:14.459Z,17.65
2019-04-14T11:06:45.271Z,30.23
2019-04-14T11:09:14.820Z,23.70
2019-04-14T11:11:41.201Z,26.60
2019-04-14T11:14:07.464Z,23.85
2019-04-14T11:16:33.632Z,19.85
2019-04-14T11:19:02.025Z,22.70
2019-04-14T11:21:41.796Z,24.17
2019-04-14T11:23:58.749Z,22.00
2019-04-14T11:26:26.914Z,21.48
2019-04-14T11:28:53.073Z,22.00
2019-04-14T11:31:21.146Z,20.55
2019-04-14T11:34:00.997Z,22.10
2019-04-14T11:39:16.982Z,19.80
2019-04-14T11:44:09.180Z,18.75
2019-04-14T11:46:35.331Z,14.55
2019-04-14T11:49:01.655Z,18.95
2019-04-14T11:51:27.942Z,14.28
2019-04-14T11:53:54.184Z,15.05
2019-04-14T11:56:20.493Z,21.17
2019-04-14T11:58:46.776Z,14.13
2019-04-14T12:01:23.598Z,17.12
2019-04-14T12:03:54.312Z,19.52
2019-04-14T12:06:22.470Z,15.98
2019-04-14T12:08:53.079Z,15.05
2019-04-14T12:11:19.356Z,15.35
2019-04-14T12:13:45.504Z,15.88
2019-04-14T12:16:11.666Z,14.98
2019-04-14T12:18:37.855Z,15.00
2019-04-14T12:21:04.051Z,14.30
2019-04-14T12:23:30.469Z,18.80
2019-04-14T12:26:05.278Z,18.23
2019-04-14T12:28:24.824Z,17.65
2019-04-14T12:30:53.247Z,22.13
2019-04-14T12:33:19.650Z,17.73
2019-04-14T12:35:45.864Z,13.83
2019-04-14T12:38:12.114Z,15.72
2019-04-14T12:40:38.832Z,16.10
2019-04-14T12:43:07.167Z,18.85
2019-04-14T12:45:52.024Z,15.55
2019-04-14T12:48:26.263Z,20.20
2019-04-14T12:51:00.565Z,17.42
2019-04-14T12:53:26.762Z,14.43
2019-04-14T12:55:52.946Z,18.62
2019-04-14T13:01:11.450Z,15.95
2019-04-14T13:03:38.301Z,17.27
2019-04-14T13:06:04.444Z,13.75
2019-04-14T13:08:31.491Z,18.82
2019-04-14T13:10:57.639Z,16.23
2019-04-14T13:13:23.792Z,16.27
2019-04-14T13:15:49.984Z,12.55
2019-04-14T13:18:16.251Z,21.10
2019-04-14T13:20:42.429Z,17.52
2019-04-14T13:23:08.561Z,14.40
2019-04-14T13:25:34.819Z,17.65
2019-04-14T13:28:00.965Z,14.50
2019-04-14T13:30:31.798Z,17.90
2019-04-14T13:32:58.061Z,17.12
2019-04-14T13:35:24.266Z,17.10
2019-04-14T13:37:50.444Z,20.17
2019-04-14T13:40:16.585Z,15.95
2019-04-14T13:42:42.736Z,17.48
2019-04-14T13:45:08.992Z,16.45
2019-04-14T13:47:35.176Z,16.48
2019-04-14T13:50:02.258Z,15.55
2019-04-14T13:52:30.822Z,17.77
2019-04-14T13:54:56.485Z,16.05
2019-04-14T13:57:22.638Z,15.18
2019-04-14T13:59:48.805Z,17.35
2019-04-14T14:02:15.014Z,22.62
2019-04-14T14:04:41.146Z,19.73
2019-04-14T14:07:10.917Z,19.27
2019-04-14T14:09:37.150Z,14.40
2019-04-14T14:12:17.242Z,19.02
2019-04-14T14:14:51.068Z,23.20
2019-04-14T14:17:21.674Z,20.52
2019-04-14T14:19:55.556Z,20.25
2019-04-14T14:25:26.686Z,19.48
2019-04-14T14:27:52.897Z,14.00
2019-04-14T14:30:20.384Z,13.13
2019-04-14T14:32:46.556Z,16.50
2019-04-14T14:35:12.731Z,16.48
2019-04-14T14:37:38.883Z,14.30
2019-04-14T14:40:05.574Z,14.47
2019-04-14T14:42:31.713Z,14.87
2019-04-14T14:45:05.620Z,17.48
2019-04-14T14:47:33.573Z,20.50
2019-04-14T14:50:10.275Z,17.73
2019-04-14T14:52:37.830Z,15.15
2019-04-14T14:55:07.472Z,16.30
2019-04-14T14:57:33.797Z,13.35
2019-04-14T15:00:00.015Z,15.23
2019-04-14T15:02:26.274Z,15.05
2019-04-14T15:04:55.217Z,14.30
2019-04-14T15:07:21.380Z,17.92
2019-04-14T15:09:47.745Z,12.50
2019-04-14T15:12:14.077Z,26.00
2019-04-14T15:14:40.388Z,13.48
2019-04-14T15:17:08.392Z,19.65
2019-04-14T15:19:34.926Z,25.45
2019-04-14T15:22:01.081Z,16.32
2019-04-14T15:24:27.340Z,18.15
2019-04-14T15:26:53.493Z,14.73
2019-04-14T15:29:19.779Z,20.50
2019-04-14T15:31:46.038Z,10.93
2019-04-14T15:34:12.339Z,14.78
2019-04-14T15:36:38.546Z,14.90
2019-04-14T15:39:06.498Z,14.78
2019-04-14T15:41:32.641Z,10.32
2019-04-14T15:43:58.623Z,12.73
2019-04-14T15:46:24.772Z,13.93
2019-04-14T15:48:51.026Z,14.65
2019-04-14T15:51:17.217Z,13.75
2019-04-14T15:53:43.358Z,19.62
2019-04-14T15:56:11.411Z,17.60
2019-04-14T15:58:42.265Z,10.58
2019-04-14T16:01:15.855Z,18.92
2019-04-14T16:03:46.932Z,12.25
2019-04-14T16:06:36.004Z,13.72
2019-04-14T16:09:21.556Z,12.73
2019-04-14T16:12:04.791Z,14.63
2019-04-14T16:14:47.814Z,18.92
2019-04-14T16:20:06.961Z,15.90
2019-04-14T16:22:33.695Z,14.90
2019-04-14T16:25:00.159Z,21.35
2019-04-14T16:30:23.948Z,14.65
2019-04-14T16:33:03.895Z,15.85
2019-04-14T16:35:31.926Z,18.80
2019-04-14T16:37:58.524Z,23.47
2019-04-14T16:40:24.796Z,25.17
2019-04-14T16:42:52.389Z,22.90
2019-04-14T16:45:18.705Z,23.25
2019-04-14T16:47:44.894Z,32.00
2019-04-14T16:50:11.633Z,15.25
2019-04-14T16:55:30.093Z,38.88
2019-04-14T16:57:58.436Z,23.27
2019-04-14T17:00:26.504Z,15.50
2019-04-14T17:02:54.532Z,25.37
2019-04-14T17:05:20.666Z,25.70
2019-04-14T17:07:46.994Z,25.45
2019-04-14T17:10:13.270Z,29.12
2019-04-14T17:12:39.599Z,21.73
2019-04-14T17:15:26.001Z,13.60
2019-04-14T17:18:06.282Z,21.27
2019-04-14T17:20:51.226Z,21.27
2019-04-14T17:23:19.287Z,14.35
2019-04-14T17:25:49.926Z,21.80
2019-04-14T17:28:32.875Z,18.85
2019-04-14T17:31:01.009Z,91.40
2019-04-14T17:33:37.881Z,81.82
2019-04-14T17:36:08.648Z,49.23
2019-04-14T17:38:39.282Z,36.85
2019-04-14T17:41:13.836Z,62.43
2019-04-14T17:43:41.906Z,60.92
2019-04-14T17:46:27.823Z,62.00
2019-04-14T17:49:04.054Z,60.73
2019-04-14T17:51:32.085Z,33.98
2019-04-14T17:54:00.130Z,40.50
2019-04-14T17:56:30.828Z,37.05
2019-04-14T18:01:48.396Z,19.95
2019-04-14T18:04:16.367Z,20.10
2019-04-14T18:06:47.449Z,12.90
2019-04-14T18:09:24.147Z,27.52
2019-04-14T18:11:54.734Z,21.60
2019-04-14T18:14:25.729Z,25.82
2019-04-14T18:17:10.478Z,15.83
2019-04-14T18:19:55.376Z,16.67
2019-04-14T18:22:21.515Z,21.70
2019-04-14T18:24:47.686Z,45.23
2019-04-14T18:27:13.835Z,35.98
2019-04-14T18:29:58.675Z,41.18
2019-04-14T18:32:29.373Z,56.53
2019-04-14T18:34:57.321Z,56.68
2019-04-14T18:40:17.437Z,45.92
2019-04-14T18:42:45.882Z,34.63
2019-04-14T18:45:20.012Z,182.53
2019-04-14T18:47:47.994Z,99.20
2019-04-14T18:50:23.772Z,60.63
2019-04-14T18:52:57.871Z,124.33
2019-04-14T18:55:28.462Z,102.75
2019-04-14T18:58:05.164Z,143.32
2019-04-14T19:00:50.130Z,55.15
2019-04-14T19:03:16.269Z,185.78
2019-04-14T19:05:42.473Z,68.07
2019-04-14T19:08:08.627Z,62.78
2019-04-14T19:10:34.912Z,41.50
2019-04-14T19:13:02.849Z,30.92
2019-04-14T19:15:36.632Z,33.90
2019-04-14T19:18:07.692Z,64.70
2019-04-14T19:20:33.868Z,56.68
2019-04-14T19:22:59.917Z,121.77
2019-04-14T19:25:25.965Z,65.17
2019-04-14T19:27:52.031Z,49.18
2019-04-14T19:30:18.341Z,65.17
2019-04-14T19:32:44.481Z,82.02
2019-04-14T19:35:10.659Z,106.60
2019-04-14T19:37:36.803Z,72.40
2019-04-14T19:40:04.864Z,82.00
2019-04-14T19:42:31.023Z,55.12
2019-04-14T19:44:57.158Z,52.30
2019-04-14T19:47:23.337Z,77.42
2019-04-14T19:49:49.373Z,66.82
2019-04-14T19:52:15.537Z,109.42
2019-04-14T19:54:41.727Z,75.70
2019-04-14T19:57:08.005Z,70.00
2019-04-14T19:59:34.212Z,90.65
2019-04-14T20:02:00.352Z,72.08
2019-04-14T20:04:26.637Z,78.78
2019-04-14T20:06:52.777Z,161.60
2019-04-14T20:09:18.907Z,122.78
2019-04-14T20:11:45.170Z,93.03
2019-04-14T20:14:11.223Z,66.87
2019-04-14T20:16:39.292Z,104.07
2019-04-14T20:19:13.395Z,131.18
2019-04-14T20:21:44.603Z,89.40
2019-04-14T20:24:21.723Z,85.42
2019-04-14T20:26:49.832Z,73.37
2019-04-14T20:29:17.770Z,72.78
2019-04-14T20:31:45.820Z,131.93
2019-04-14T20:34:11.885Z,145.70
2019-04-14T20:36:38.041Z,107.12
2019-04-14T20:39:07.235Z,205.77
2019-04-14T20:41:33.418Z,81.50
2019-04-14T20:44:01.897Z,88.07
2019-04-14T20:46:29.423Z,89.58
2019-04-14T20:48:55.702Z,187.35
2019-04-14T20:51:21.895Z,218.80
2019-04-14T20:53:47.840Z,153.60
2019-04-14T20:56:14.100Z,96.00
2019-04-14T20:58:40.269Z,83.72
2019-04-14T21:01:08.147Z,201.10
2019-04-14T21:03:47.996Z,135.97
2019-04-14T21:09:29.116Z,50.03
2019-04-14T21:12:00.049Z,73.47
2019-04-14T21:14:28.099Z,69.55
2019-04-14T21:17:11.041Z,49.65
2019-04-14T21:19:39.082Z,68.78
2019-04-14T21:22:07.125Z,99.60
2019-04-14T21:24:47.266Z,79.53
2019-04-14T21:27:27.662Z,79.85
2019-04-14T21:30:04.470Z,50.58
2019-04-14T21:32:47.708Z,40.88
2019-04-14T21:35:24.395Z,75.52
2019-04-14T21:37:58.241Z,76.62
2019-04-14T21:40:26.336Z,28.32
2019-04-14T21:42:52.486Z,29.85
2019-04-14T21:45:18.637Z,34.08
2019-04-14T21:47:44.829Z,37.00
2019-04-14T21:50:12.282Z,64.27
2019-04-14T21:52:40.360Z,45.28
2019-04-14T21:55:06.839Z,55.43
2019-04-14T21:57:51.533Z,27.15
2019-04-14T22:03:31.704Z,27.70
2019-04-14T22:06:02.772Z,22.00
2019-04-14T22:08:30.809Z,18.60
2019-04-14T22:10:58.923Z,17.95
2019-04-14T22:13:25.175Z,17.52
2019-04-14T22:15:51.726Z,18.20
2019-04-14T22:18:18.494Z,31.57
2019-04-14T22:20:44.541Z,148.40
2019-04-14T22:23:12.620Z,33.48
2019-04-14T22:25:38.767Z,28.02
2019-04-14T22:28:04.953Z,39.90
2019-04-14T22:30:31.096Z,24.35
2019-04-14T22:32:57.251Z,79.70
2019-04-14T22:35:23.399Z,88.50
2019-04-14T22:37:49.573Z,60.50
2019-04-14T22:40:15.826Z,123.87
2019-04-14T22:42:42.045Z,106.85
2019-04-14T22:45:10.214Z,92.20
2019-04-14T22:47:36.348Z,128.55
2019-04-14T22:50:03.907Z,81.25
2019-04-14T22:52:29.991Z,74.00
2019-04-14T22:54:56.168Z,80.95
2019-04-14T22:57:22.327Z,55.12
2019-04-14T22:59:48.540Z,73.30
2019-04-14T23:02:22.119Z,115.32
2019-04-14T23:04:50.233Z,95.35
2019-04-14T23:07:18.276Z,158.00
2019-04-14T23:09:46.326Z,166.37
2019-04-14T23:15:03.558Z,158.52
2019-04-14T23:17:37.722Z,109.25
2019-04-14T23:23:01.839Z,107.40
2019-04-14T23:25:27.979Z,93.37
2019-04-14T23:27:54.135Z,78.12
2019-04-14T23:30:20.385Z,60.20
2019-04-14T23:32:46.523Z,107.35
2019-04-14T23:35:12.598Z,51.90
2019-04-14T23:37:38.753Z,33.88
2019-04-14T23:40:05.849Z,50.85
2019-04-14T23:42:32.092Z,38.85
2019-04-14T23:44:58.237Z,38.78
2019-04-14T23:47:24.377Z,125.50
2019-04-14T23:49:50.460Z,195.75
2019-04-14T23:52:16.610Z,54.33
2019-04-14T23:54:42.744Z,92.88
2019-04-14T23:57:08.913Z,60.52
2019-04-14T23:59:35.045Z,36.68
